sensor_id;sensor_type;location;lat;lon;timestamp;P1;durP1;ratioP1;P2;durP2;ratioP2
7211;SDS011;3647;48.792;9.802;2023-11-19T06:59:47;2.30;;;1.50;;
7211;SDS011;3647;48.792;9.802;2023-11-19T07:02:13;1.80;;;1.00;;
7211;SDS011;3647;48.792;9.802;2023-11-19T07:04:40;1.60;;;1.50;;
7211;SDS011;3647;48.792;9.802;2023-11-19T07:07:07;2.07;;;1.70;;
7211;SDS011;3647;48.792;9.802;2023-11-19T07:09:34;2.03;;;1.87;;
7211;SDS011;3647;48.792;9.802;2023-11-19T07:12:02;1.50;;;1.40;;
7211;SDS011;3647;48.792;9.802;2023-11-19T07:14:30;2.13;;;1.70;;
7211;SDS011;3647;48.792;9.802;2023-11-19T07:16:59;1.47;;;1.37;;
7211;SDS011;3647;48.792;9.802;2023-11-19T07:19:26;1.60;;;1.50;;
7211;SDS011;3647;48.792;9.802;2023-11-19T07:21:53;1.10;;;1.00;;
7211;SDS011;3647;48.792;9.802;2023-11-19T07:24:21;1.23;;;1.23;;
7211;SDS011;3647;48.792;9.802;2023-11-19T07:26:48;1.10;;;1.10;;
7211;SDS011;3647;48.792;9.802;2023-11-19T07:29:15;0.90;;;0.90;;
7211;SDS011;3647;48.792;9.802;2023-11-19T07:31:42;1.50;;;1.40;;
7211;SDS011;3647;48.792;9.802;2023-11-19T07:34:11;1.27;;;1.23;;
7211;SDS011;3647;48.792;9.802;2023-11-19T07:36:39;1.17;;;1.17;;
7211;SDS011;3647;48.792;9.802;2023-11-19T07:39:06;1.40;;;1.40;;
7211;SDS011;3647;48.792;9.802;2023-11-19T07:41:33;1.20;;;1.20;;
7211;SDS011;3647;48.792;9.802;2023-11-19T07:44:00;1.00;;;1.00;;
7211;SDS011;3647;48.792;9.802;2023-11-19T07:46:27;1.07;;;1.00;;
7211;SDS011;3647;48.792;9.802;2023-11-19T07:48:55;1.00;;;1.00;;
7211;SDS011;3647;48.792;9.802;2023-11-19T07:51:23;1.17;;;1.10;;
7211;SDS011;3647;48.792;9.802;2023-11-19T07:53:54;3.73;;;1.47;;
7211;SDS011;3647;48.792;9.802;2023-11-19T07:56:21;1.63;;;1.53;;
7211;SDS011;3647;48.792;9.802;2023-11-19T07:58:48;1.13;;;1.13;;
7211;SDS011;3647;48.792;9.802;2023-11-19T08:01:16;1.47;;;1.37;;
7211;SDS011;3647;48.792;9.802;2023-11-19T08:03:46;2.10;;;2.00;;
7211;SDS011;3647;48.792;9.802;2023-11-19T08:06:13;1.60;;;1.47;;
7211;SDS011;3647;48.792;9.802;2023-11-19T08:08:42;1.77;;;1.67;;
7211;SDS011;3647;48.792;9.802;2023-11-19T08:11:10;1.43;;;1.33;;
7211;SDS011;3647;48.792;9.802;2023-11-19T08:13:38;1.93;;;1.60;;
7211;SDS011;3647;48.792;9.802;2023-11-19T08:16:06;1.67;;;1.57;;
7211;SDS011;3647;48.792;9.802;2023-11-19T08:18:34;1.23;;;1.23;;
7211;SDS011;3647;48.792;9.802;2023-11-19T08:21:02;1.53;;;1.43;;
7211;SDS011;3647;48.792;9.802;2023-11-19T08:23:30;1.43;;;1.33;;
7211;SDS011;3647;48.792;9.802;2023-11-19T08:26:00;1.00;;;1.00;;
7211;SDS011;3647;48.792;9.802;2023-11-19T08:28:30;1.33;;;1.30;;
7211;SDS011;3647;48.792;9.802;2023-11-19T08:30:59;1.30;;;1.20;;
7211;SDS011;3647;48.792;9.802;2023-11-19T08:33:27;1.13;;;1.13;;
7211;SDS011;3647;48.792;9.802;2023-11-19T08:35:54;1.30;;;1.30;;
7211;SDS011;3647;48.792;9.802;2023-11-19T08:38:22;1.40;;;1.30;;
7211;SDS011;3647;48.792;9.802;2023-11-19T08:40:49;1.00;;;1.00;;
7211;SDS011;3647;48.792;9.802;2023-11-19T08:43:18;1.17;;;1.17;;
7211;SDS011;3647;48.792;9.802;2023-11-19T08:45:48;0.90;;;0.90;;
7211;SDS011;3647;48.792;9.802;2023-11-19T08:48:16;1.73;;;1.53;;
7211;SDS011;3647;48.792;9.802;2023-11-19T08:50:43;1.40;;;1.30;;
7211;SDS011;3647;48.792;9.802;2023-11-19T08:53:11;1.70;;;1.60;;
7211;SDS011;3647;48.792;9.802;2023-11-19T08:55:39;1.63;;;1.53;;
7211;SDS011;3647;48.792;9.802;2023-11-19T08:58:07;1.23;;;1.13;;
7211;SDS011;3647;48.792;9.802;2023-11-19T09:00:37;1.33;;;1.20;;
7211;SDS011;3647;48.792;9.802;2023-11-19T09:03:04;2.43;;;2.33;;
7211;SDS011;3647;48.792;9.802;2023-11-19T09:05:31;1.10;;;1.10;;
7211;SDS011;3647;48.792;9.802;2023-11-19T09:07:58;1.33;;;1.23;;
7211;SDS011;3647;48.792;9.802;2023-11-19T09:10:27;1.10;;;1.03;;
7211;SDS011;3647;48.792;9.802;2023-11-19T09:12:54;1.00;;;1.00;;
7211;SDS011;3647;48.792;9.802;2023-11-19T09:15:21;1.23;;;1.13;;
7211;SDS011;3647;48.792;9.802;2023-11-19T09:17:49;1.20;;;1.10;;
7211;SDS011;3647;48.792;9.802;2023-11-19T09:20:16;1.00;;;1.00;;
7211;SDS011;3647;48.792;9.802;2023-11-19T09:22:43;1.40;;;1.30;;
7211;SDS011;3647;48.792;9.802;2023-11-19T09:25:11;1.60;;;1.50;;
7211;SDS011;3647;48.792;9.802;2023-11-19T09:27:41;5.03;;;1.30;;
7211;SDS011;3647;48.792;9.802;2023-11-19T09:30:10;2.20;;;2.03;;
7211;SDS011;3647;48.792;9.802;2023-11-19T09:32:38;1.50;;;1.40;;
7211;SDS011;3647;48.792;9.802;2023-11-19T09:35:07;1.90;;;1.80;;
7211;SDS011;3647;48.792;9.802;2023-11-19T09:37:38;1.10;;;1.10;;
7211;SDS011;3647;48.792;9.802;2023-11-19T09:40:06;1.83;;;1.07;;
7211;SDS011;3647;48.792;9.802;2023-11-19T09:42:38;0.90;;;0.90;;
7211;SDS011;3647;48.792;9.802;2023-11-19T09:45:12;1.97;;;1.37;;
7211;SDS011;3647;48.792;9.802;2023-11-19T09:47:42;1.30;;;1.20;;
7211;SDS011;3647;48.792;9.802;2023-11-19T09:50:15;0.90;;;0.90;;
7211;SDS011;3647;48.792;9.802;2023-11-19T09:52:43;1.70;;;1.37;;
7211;SDS011;3647;48.792;9.802;2023-11-19T09:55:10;1.00;;;1.00;;
7211;SDS011;3647;48.792;9.802;2023-11-19T09:57:38;1.20;;;1.10;;
7211;SDS011;3647;48.792;9.802;2023-11-19T10:00:07;0.93;;;0.93;;
7211;SDS011;3647;48.792;9.802;2023-11-19T10:02:35;1.00;;;1.00;;
7211;SDS011;3647;48.792;9.802;2023-11-19T10:05:04;0.83;;;0.83;;
7211;SDS011;3647;48.792;9.802;2023-11-19T10:07:34;1.17;;;1.00;;
7211;SDS011;3647;48.792;9.802;2023-11-19T10:10:02;0.90;;;0.90;;
7211;SDS011;3647;48.792;9.802;2023-11-19T10:12:30;1.10;;;1.00;;
7211;SDS011;3647;48.792;9.802;2023-11-19T10:14:58;1.20;;;1.10;;
7211;SDS011;3647;48.792;9.802;2023-11-19T10:17:28;1.00;;;1.00;;
7211;SDS011;3647;48.792;9.802;2023-11-19T10:19:59;1.10;;;1.10;;
7211;SDS011;3647;48.792;9.802;2023-11-19T10:22:27;1.03;;;1.03;;
7211;SDS011;3647;48.792;9.802;2023-11-19T10:24:56;1.57;;;1.13;;
7211;SDS011;3647;48.792;9.802;2023-11-19T10:27:24;1.87;;;1.10;;
7211;SDS011;3647;48.792;9.802;2023-11-19T10:29:51;1.10;;;1.10;;
7211;SDS011;3647;48.792;9.802;2023-11-19T10:32:19;1.43;;;1.33;;
7211;SDS011;3647;48.792;9.802;2023-11-19T10:34:46;0.90;;;0.90;;
7211;SDS011;3647;48.792;9.802;2023-11-19T10:37:26;0.83;;;0.83;;
7211;SDS011;3647;48.792;9.802;2023-11-19T10:39:54;0.80;;;0.80;;
7211;SDS011;3647;48.792;9.802;2023-11-19T10:42:24;1.10;;;1.10;;
7211;SDS011;3647;48.792;9.802;2023-11-19T10:44:51;1.00;;;1.00;;
7211;SDS011;3647;48.792;9.802;2023-11-19T10:47:20;0.80;;;0.80;;
7211;SDS011;3647;48.792;9.802;2023-11-19T10:49:49;0.90;;;0.90;;
7211;SDS011;3647;48.792;9.802;2023-11-19T10:52:17;1.10;;;1.10;;
7211;SDS011;3647;48.792;9.802;2023-11-19T10:54:47;0.80;;;0.80;;
7211;SDS011;3647;48.792;9.802;2023-11-19T10:57:19;0.83;;;0.83;;
7211;SDS011;3647;48.792;9.802;2023-11-19T10:59:49;1.00;;;1.00;;
7211;SDS011;3647;48.792;9.802;2023-11-19T11:02:19;0.90;;;0.90;;
7211;SDS011;3647;48.792;9.802;2023-11-19T11:04:50;1.23;;;1.13;;
7211;SDS011;3647;48.792;9.802;2023-11-19T11:07:21;1.10;;;1.00;;
7211;SDS011;3647;48.792;9.802;2023-11-19T11:09:52;0.80;;;0.80;;
7211;SDS011;3647;48.792;9.802;2023-11-19T11:12:23;1.20;;;1.10;;
7211;SDS011;3647;48.792;9.802;2023-11-19T11:14:51;1.23;;;1.07;;
7211;SDS011;3647;48.792;9.802;2023-11-19T11:17:21;1.00;;;1.00;;
7211;SDS011;3647;48.792;9.802;2023-11-19T11:19:53;0.80;;;0.80;;
7211;SDS011;3647;48.792;9.802;2023-11-19T11:22:20;0.87;;;0.87;;
7211;SDS011;3647;48.792;9.802;2023-11-19T11:24:58;1.07;;;0.97;;
7211;SDS011;3647;48.792;9.802;2023-11-19T11:27:51;0.93;;;0.90;;
7211;SDS011;3647;48.792;9.802;2023-11-19T11:30:33;1.40;;;1.10;;
7211;SDS011;3647;48.792;9.802;2023-11-19T11:33:21;0.80;;;0.80;;
7211;SDS011;3647;48.792;9.802;2023-11-19T11:36:05;1.00;;;0.90;;
7211;SDS011;3647;48.792;9.802;2023-11-19T11:38:40;0.80;;;0.80;;
7211;SDS011;3647;48.792;9.802;2023-11-19T11:41:17;1.43;;;0.93;;
7211;SDS011;3647;48.792;9.802;2023-11-19T11:43:53;0.80;;;0.80;;
7211;SDS011;3647;48.792;9.802;2023-11-19T11:49:25;0.80;;;0.80;;
7211;SDS011;3647;48.792;9.802;2023-11-19T11:51:58;0.77;;;0.70;;
7211;SDS011;3647;48.792;9.802;2023-11-19T11:54:29;1.20;;;1.07;;
7211;SDS011;3647;48.792;9.802;2023-11-19T11:57:07;1.00;;;1.00;;
7211;SDS011;3647;48.792;9.802;2023-11-19T11:59:50;0.77;;;0.73;;
7211;SDS011;3647;48.792;9.802;2023-11-19T12:02:18;0.90;;;0.90;;
7211;SDS011;3647;48.792;9.802;2023-11-19T12:04:47;1.27;;;1.00;;
7211;SDS011;3647;48.792;9.802;2023-11-19T12:07:16;0.83;;;0.83;;
7211;SDS011;3647;48.792;9.802;2023-11-19T12:09:47;1.47;;;1.00;;
7211;SDS011;3647;48.792;9.802;2023-11-19T12:12:18;1.00;;;1.00;;
7211;SDS011;3647;48.792;9.802;2023-11-19T12:15:02;1.10;;;1.00;;
7211;SDS011;3647;48.792;9.802;2023-11-19T12:17:41;1.10;;;1.10;;
7211;SDS011;3647;48.792;9.802;2023-11-19T12:20:14;0.80;;;0.80;;
7211;SDS011;3647;48.792;9.802;2023-11-19T12:22:42;0.80;;;0.80;;
7211;SDS011;3647;48.792;9.802;2023-11-19T12:25:11;1.33;;;0.90;;
7211;SDS011;3647;48.792;9.802;2023-11-19T12:27:41;1.10;;;1.00;;
7211;SDS011;3647;48.792;9.802;2023-11-19T12:33:12;1.10;;;1.00;;
7211;SDS011;3647;48.792;9.802;2023-11-19T12:35:44;0.90;;;0.90;;
7211;SDS011;3647;48.792;9.802;2023-11-19T12:38:18;1.00;;;0.90;;
7211;SDS011;3647;48.792;9.802;2023-11-19T12:43:27;0.93;;;0.93;;
7211;SDS011;3647;48.792;9.802;2023-11-19T12:45:56;1.00;;;1.00;;
7211;SDS011;3647;48.792;9.802;2023-11-19T12:53:46;1.20;;;0.90;;
7211;SDS011;3647;48.792;9.802;2023-11-19T12:56:19;1.55;;;0.90;;
7211;SDS011;3647;48.792;9.802;2023-11-19T12:58:47;1.85;;;1.02;;
7211;SDS011;3647;48.792;9.802;2023-11-19T13:03:52;1.13;;;0.90;;
7211;SDS011;3647;48.792;9.802;2023-11-19T13:06:21;0.87;;;0.80;;
7211;SDS011;3647;48.792;9.802;2023-11-19T13:08:49;1.17;;;0.80;;
7211;SDS011;3647;48.792;9.802;2023-11-19T13:11:29;0.90;;;0.90;;
7211;SDS011;3647;48.792;9.802;2023-11-19T13:13:57;0.80;;;0.80;;
7211;SDS011;3647;48.792;9.802;2023-11-19T13:16:26;3.08;;;1.02;;
7211;SDS011;3647;48.792;9.802;2023-11-19T13:18:57;1.40;;;0.90;;
7211;SDS011;3647;48.792;9.802;2023-11-19T13:21:27;0.98;;;0.88;;
7211;SDS011;3647;48.792;9.802;2023-11-19T13:23:59;0.77;;;0.77;;
7211;SDS011;3647;48.792;9.802;2023-11-19T13:26:30;1.15;;;0.80;;
7211;SDS011;3647;48.792;9.802;2023-11-19T13:28:57;1.25;;;0.70;;
7211;SDS011;3647;48.792;9.802;2023-11-19T13:31:24;0.70;;;0.70;;
7211;SDS011;3647;48.792;9.802;2023-11-19T13:33:52;1.55;;;1.02;;
7211;SDS011;3647;48.792;9.802;2023-11-19T13:36:21;2.13;;;0.85;;
7211;SDS011;3647;48.792;9.802;2023-11-19T13:38:48;1.52;;;1.00;;
7211;SDS011;3647;48.792;9.802;2023-11-19T13:41:15;0.80;;;0.80;;
7211;SDS011;3647;48.792;9.802;2023-11-19T13:43:42;1.05;;;0.95;;
7211;SDS011;3647;48.792;9.802;2023-11-19T13:46:09;0.90;;;0.88;;
7211;SDS011;3647;48.792;9.802;2023-11-19T13:48:36;0.88;;;0.80;;
7211;SDS011;3647;48.792;9.802;2023-11-19T13:51:03;1.15;;;0.95;;
7211;SDS011;3647;48.792;9.802;2023-11-19T13:53:32;1.23;;;1.13;;
7211;SDS011;3647;48.792;9.802;2023-11-19T13:55:58;0.93;;;0.90;;
7211;SDS011;3647;48.792;9.802;2023-11-19T13:58:25;0.80;;;0.80;;
7211;SDS011;3647;48.792;9.802;2023-11-19T14:00:51;0.85;;;0.85;;
7211;SDS011;3647;48.792;9.802;2023-11-19T14:03:18;1.40;;;0.90;;
7211;SDS011;3647;48.792;9.802;2023-11-19T14:05:45;0.70;;;0.70;;
7211;SDS011;3647;48.792;9.802;2023-11-19T14:08:14;0.90;;;0.90;;
7211;SDS011;3647;48.792;9.802;2023-11-19T14:10:56;0.68;;;0.68;;
7211;SDS011;3647;48.792;9.802;2023-11-19T14:13:23;1.85;;;1.00;;
7211;SDS011;3647;48.792;9.802;2023-11-19T14:15:51;1.00;;;0.87;;
7211;SDS011;3647;48.792;9.802;2023-11-19T14:18:19;0.73;;;0.73;;
7211;SDS011;3647;48.792;9.802;2023-11-19T14:20:49;0.90;;;0.85;;
7211;SDS011;3647;48.792;9.802;2023-11-19T14:23:18;0.80;;;0.80;;
7211;SDS011;3647;48.792;9.802;2023-11-19T14:28:42;0.90;;;0.90;;
7211;SDS011;3647;48.792;9.802;2023-11-19T14:31:14;2.78;;;0.85;;
7211;SDS011;3647;48.792;9.802;2023-11-19T14:33:42;1.10;;;0.80;;
7211;SDS011;3647;48.792;9.802;2023-11-19T14:36:09;1.00;;;1.00;;
7211;SDS011;3647;48.792;9.802;2023-11-19T14:38:39;1.40;;;1.10;;
7211;SDS011;3647;48.792;9.802;2023-11-19T14:41:06;0.80;;;0.80;;
7211;SDS011;3647;48.792;9.802;2023-11-19T14:43:35;0.80;;;0.80;;
7211;SDS011;3647;48.792;9.802;2023-11-19T14:46:02;2.67;;;1.00;;
7211;SDS011;3647;48.792;9.802;2023-11-19T14:48:29;0.80;;;0.80;;
7211;SDS011;3647;48.792;9.802;2023-11-19T14:50:57;1.10;;;1.00;;
7211;SDS011;3647;48.792;9.802;2023-11-19T14:53:28;0.83;;;0.83;;
7211;SDS011;3647;48.792;9.802;2023-11-19T14:55:55;1.93;;;0.97;;
7211;SDS011;3647;48.792;9.802;2023-11-19T14:58:22;1.08;;;1.00;;
7211;SDS011;3647;48.792;9.802;2023-11-19T15:00:52;1.30;;;1.00;;
7211;SDS011;3647;48.792;9.802;2023-11-19T15:03:19;2.63;;;1.03;;
7211;SDS011;3647;48.792;9.802;2023-11-19T15:05:45;0.90;;;0.90;;
7211;SDS011;3647;48.792;9.802;2023-11-19T15:08:12;0.90;;;0.90;;
7211;SDS011;3647;48.792;9.802;2023-11-19T15:10:41;1.00;;;1.00;;
7211;SDS011;3647;48.792;9.802;2023-11-19T15:13:08;0.97;;;0.97;;
7211;SDS011;3647;48.792;9.802;2023-11-19T15:15:35;1.13;;;1.10;;
7211;SDS011;3647;48.792;9.802;2023-11-19T15:18:05;2.00;;;1.17;;
7211;SDS011;3647;48.792;9.802;2023-11-19T15:20:31;0.80;;;0.80;;
7211;SDS011;3647;48.792;9.802;2023-11-19T15:22:58;2.50;;;1.10;;
7211;SDS011;3647;48.792;9.802;2023-11-19T15:25:25;2.77;;;1.40;;
7211;SDS011;3647;48.792;9.802;2023-11-19T15:27:52;2.30;;;0.90;;
7211;SDS011;3647;48.792;9.802;2023-11-19T15:30:19;1.53;;;1.00;;
7211;SDS011;3647;48.792;9.802;2023-11-19T15:32:45;1.67;;;1.17;;
7211;SDS011;3647;48.792;9.802;2023-11-19T15:35:13;1.50;;;1.40;;
7211;SDS011;3647;48.792;9.802;2023-11-19T15:37:40;1.50;;;1.40;;
7211;SDS011;3647;48.792;9.802;2023-11-19T15:40:09;1.63;;;1.27;;
7211;SDS011;3647;48.792;9.802;2023-11-19T15:42:37;1.40;;;1.30;;
7211;SDS011;3647;48.792;9.802;2023-11-19T15:45:05;1.27;;;1.20;;
7211;SDS011;3647;48.792;9.802;2023-11-19T15:47:32;3.40;;;1.40;;
7211;SDS011;3647;48.792;9.802;2023-11-19T15:50:00;1.50;;;1.40;;
7211;SDS011;3647;48.792;9.802;2023-11-19T15:52:29;1.63;;;1.53;;
7211;SDS011;3647;48.792;9.802;2023-11-19T15:54:56;1.80;;;1.17;;
7211;SDS011;3647;48.792;9.802;2023-11-19T15:57:23;2.53;;;1.30;;
7211;SDS011;3647;48.792;9.802;2023-11-19T15:59:51;1.73;;;1.20;;
7211;SDS011;3647;48.792;9.802;2023-11-19T16:02:18;1.40;;;1.30;;
7211;SDS011;3647;48.792;9.802;2023-11-19T16:04:45;1.60;;;1.50;;
7211;SDS011;3647;48.792;9.802;2023-11-19T16:07:12;1.67;;;1.57;;
7211;SDS011;3647;48.792;9.802;2023-11-19T16:09:41;1.10;;;1.10;;
7211;SDS011;3647;48.792;9.802;2023-11-19T16:12:08;1.30;;;1.10;;
7211;SDS011;3647;48.792;9.802;2023-11-19T16:14:35;1.30;;;1.27;;
7211;SDS011;3647;48.792;9.802;2023-11-19T16:17:02;3.90;;;1.40;;
7211;SDS011;3647;48.792;9.802;2023-11-19T16:19:31;1.20;;;1.20;;
7211;SDS011;3647;48.792;9.802;2023-11-19T16:21:59;3.40;;;1.40;;
7211;SDS011;3647;48.792;9.802;2023-11-19T16:24:34;1.40;;;1.30;;
7211;SDS011;3647;48.792;9.802;2023-11-19T16:27:03;1.20;;;1.10;;
7211;SDS011;3647;48.792;9.802;2023-11-19T16:29:30;2.47;;;1.40;;
7211;SDS011;3647;48.792;9.802;2023-11-19T16:31:57;1.37;;;1.20;;
7211;SDS011;3647;48.792;9.802;2023-11-19T16:34:23;1.30;;;1.10;;
7211;SDS011;3647;48.792;9.802;2023-11-19T16:36:50;1.00;;;0.90;;
7211;SDS011;3647;48.792;9.802;2023-11-19T16:39:17;1.83;;;1.30;;
7211;SDS011;3647;48.792;9.802;2023-11-19T16:41:44;2.60;;;1.20;;
7211;SDS011;3647;48.792;9.802;2023-11-19T16:44:12;1.57;;;1.30;;
7211;SDS011;3647;48.792;9.802;2023-11-19T16:46:39;2.30;;;1.57;;
7211;SDS011;3647;48.792;9.802;2023-11-19T16:49:05;2.27;;;1.30;;
7211;SDS011;3647;48.792;9.802;2023-11-19T16:51:32;1.20;;;1.20;;
7211;SDS011;3647;48.792;9.802;2023-11-19T16:53:59;2.90;;;1.27;;
7211;SDS011;3647;48.792;9.802;2023-11-19T16:56:27;1.60;;;1.50;;
7211;SDS011;3647;48.792;9.802;2023-11-19T16:58:57;2.47;;;1.60;;
7211;SDS011;3647;48.792;9.802;2023-11-19T17:01:25;3.50;;;1.47;;
7211;SDS011;3647;48.792;9.802;2023-11-19T17:03:52;1.63;;;1.47;;
7211;SDS011;3647;48.792;9.802;2023-11-19T17:06:19;1.40;;;1.30;;
7211;SDS011;3647;48.792;9.802;2023-11-19T17:08:46;1.93;;;1.57;;
7211;SDS011;3647;48.792;9.802;2023-11-19T17:11:13;2.17;;;1.50;;
7211;SDS011;3647;48.792;9.802;2023-11-19T17:13:40;2.33;;;1.70;;
7211;SDS011;3647;48.792;9.802;2023-11-19T17:16:07;1.97;;;1.77;;
7211;SDS011;3647;48.792;9.802;2023-11-19T17:18:35;5.03;;;1.93;;
7211;SDS011;3647;48.792;9.802;2023-11-19T17:21:02;2.63;;;2.07;;
7211;SDS011;3647;48.792;9.802;2023-11-19T17:23:29;4.30;;;3.70;;
7211;SDS011;3647;48.792;9.802;2023-11-19T17:25:56;4.40;;;3.27;;
7211;SDS011;3647;48.792;9.802;2023-11-19T17:28:23;3.57;;;2.90;;
7211;SDS011;3647;48.792;9.802;2023-11-19T17:30:50;2.50;;;2.30;;
7211;SDS011;3647;48.792;9.802;2023-11-19T17:33:17;2.87;;;2.40;;
7211;SDS011;3647;48.792;9.802;2023-11-19T17:35:45;2.17;;;1.97;;
7211;SDS011;3647;48.792;9.802;2023-11-19T17:38:12;1.87;;;1.67;;
7211;SDS011;3647;48.792;9.802;2023-11-19T17:40:39;1.57;;;1.47;;
7211;SDS011;3647;48.792;9.802;2023-11-19T17:43:05;2.27;;;2.07;;
7211;SDS011;3647;48.792;9.802;2023-11-19T17:45:32;1.70;;;1.50;;
7211;SDS011;3647;48.792;9.802;2023-11-19T17:48:01;1.80;;;1.70;;
7211;SDS011;3647;48.792;9.802;2023-11-19T17:50:27;2.73;;;2.10;;
7211;SDS011;3647;48.792;9.802;2023-11-19T17:52:56;2.67;;;1.70;;
7211;SDS011;3647;48.792;9.802;2023-11-19T17:55:23;3.27;;;1.80;;
7211;SDS011;3647;48.792;9.802;2023-11-19T17:57:50;2.77;;;1.47;;
7211;SDS011;3647;48.792;9.802;2023-11-19T18:00:17;3.63;;;2.10;;
7211;SDS011;3647;48.792;9.802;2023-11-19T18:02:44;2.73;;;2.30;;
7211;SDS011;3647;48.792;9.802;2023-11-19T18:05:13;4.00;;;2.17;;
7211;SDS011;3647;48.792;9.802;2023-11-19T18:07:42;2.27;;;1.90;;
7211;SDS011;3647;48.792;9.802;2023-11-19T18:10:10;3.23;;;2.23;;
7211;SDS011;3647;48.792;9.802;2023-11-19T18:12:37;2.93;;;2.40;;
7211;SDS011;3647;48.792;9.802;2023-11-19T18:15:05;3.63;;;2.80;;
7211;SDS011;3647;48.792;9.802;2023-11-19T18:17:33;5.43;;;2.93;;
7211;SDS011;3647;48.792;9.802;2023-11-19T18:20:02;3.43;;;2.97;;
7211;SDS011;3647;48.792;9.802;2023-11-19T18:22:29;3.77;;;2.87;;
7211;SDS011;3647;48.792;9.802;2023-11-19T18:24:56;4.27;;;2.87;;
7211;SDS011;3647;48.792;9.802;2023-11-19T18:27:27;3.40;;;2.50;;
7211;SDS011;3647;48.792;9.802;2023-11-19T18:29:54;3.00;;;2.30;;
7211;SDS011;3647;48.792;9.802;2023-11-19T18:32:21;3.43;;;2.50;;
7211;SDS011;3647;48.792;9.802;2023-11-19T18:34:49;5.90;;;4.43;;
7211;SDS011;3647;48.792;9.802;2023-11-19T18:37:16;4.70;;;2.77;;
7211;SDS011;3647;48.792;9.802;2023-11-19T18:39:43;4.70;;;2.83;;
7211;SDS011;3647;48.792;9.802;2023-11-19T18:42:10;4.03;;;3.07;;
7211;SDS011;3647;48.792;9.802;2023-11-19T18:44:38;4.27;;;2.70;;
7211;SDS011;3647;48.792;9.802;2023-11-19T18:47:05;3.77;;;2.47;;
7211;SDS011;3647;48.792;9.802;2023-11-19T18:49:32;7.27;;;2.60;;
7211;SDS011;3647;48.792;9.802;2023-11-19T18:51:58;4.13;;;2.50;;
7211;SDS011;3647;48.792;9.802;2023-11-19T18:54:25;4.50;;;2.53;;
7211;SDS011;3647;48.792;9.802;2023-11-19T18:56:52;4.93;;;3.80;;
7211;SDS011;3647;48.792;9.802;2023-11-19T18:59:22;3.50;;;3.20;;
7211;SDS011;3647;48.792;9.802;2023-11-19T19:01:51;3.10;;;2.80;;
7211;SDS011;3647;48.792;9.802;2023-11-19T19:04:18;3.67;;;3.10;;
7211;SDS011;3647;48.792;9.802;2023-11-19T19:06:45;4.33;;;3.27;;
7211;SDS011;3647;48.792;9.802;2023-11-19T19:09:13;4.60;;;2.70;;
7211;SDS011;3647;48.792;9.802;2023-11-19T19:11:43;3.00;;;2.80;;
7211;SDS011;3647;48.792;9.802;2023-11-19T19:14:10;3.23;;;2.50;;
7211;SDS011;3647;48.792;9.802;2023-11-19T19:16:38;2.70;;;2.50;;
7211;SDS011;3647;48.792;9.802;2023-11-19T19:19:06;3.37;;;2.80;;
7211;SDS011;3647;48.792;9.802;2023-11-19T19:21:33;3.17;;;2.40;;
7211;SDS011;3647;48.792;9.802;2023-11-19T19:24:00;10.23;;;5.93;;
7211;SDS011;3647;48.792;9.802;2023-11-19T19:26:30;3.33;;;3.03;;
7211;SDS011;3647;48.792;9.802;2023-11-19T19:28:57;2.50;;;2.30;;
7211;SDS011;3647;48.792;9.802;2023-11-19T19:31:24;3.03;;;1.97;;
7211;SDS011;3647;48.792;9.802;2023-11-19T19:33:52;5.73;;;2.23;;
7211;SDS011;3647;48.792;9.802;2023-11-19T19:36:24;4.23;;;2.10;;
7211;SDS011;3647;48.792;9.802;2023-11-19T19:38:53;4.23;;;2.27;;
7211;SDS011;3647;48.792;9.802;2023-11-19T19:41:20;3.20;;;2.57;;
7211;SDS011;3647;48.792;9.802;2023-11-19T19:43:45;5.37;;;2.43;;
7211;SDS011;3647;48.792;9.802;2023-11-19T19:46:12;2.30;;;2.10;;
7211;SDS011;3647;48.792;9.802;2023-11-19T19:48:39;2.87;;;1.70;;
7211;SDS011;3647;48.792;9.802;2023-11-19T19:51:06;2.40;;;1.83;;
7211;SDS011;3647;48.792;9.802;2023-11-19T19:53:36;3.60;;;2.00;;
7211;SDS011;3647;48.792;9.802;2023-11-19T19:56:03;4.07;;;2.00;;
7211;SDS011;3647;48.792;9.802;2023-11-19T19:58:31;3.67;;;2.00;;
7211;SDS011;3647;48.792;9.802;2023-11-19T20:00:58;2.40;;;1.90;;
7211;SDS011;3647;48.792;9.802;2023-11-19T20:03:27;3.83;;;2.00;;
7211;SDS011;3647;48.792;9.802;2023-11-19T20:05:55;3.83;;;1.83;;
7211;SDS011;3647;48.792;9.802;2023-11-19T20:08:22;3.13;;;2.30;;
7211;SDS011;3647;48.792;9.802;2023-11-19T20:10:51;3.40;;;2.30;;
7211;SDS011;3647;48.792;9.802;2023-11-19T20:13:18;4.00;;;2.00;;
7211;SDS011;3647;48.792;9.802;2023-11-19T20:15:47;3.40;;;1.77;;
7211;SDS011;3647;48.792;9.802;2023-11-19T20:18:15;1.90;;;1.80;;
7211;SDS011;3647;48.792;9.802;2023-11-19T20:20:43;3.80;;;1.90;;
7211;SDS011;3647;48.792;9.802;2023-11-19T20:23:10;4.33;;;2.07;;
7211;SDS011;3647;48.792;9.802;2023-11-19T20:25:37;2.43;;;2.00;;
7211;SDS011;3647;48.792;9.802;2023-11-19T20:28:05;3.00;;;2.63;;
7211;SDS011;3647;48.792;9.802;2023-11-19T20:30:32;3.87;;;2.50;;
7211;SDS011;3647;48.792;9.802;2023-11-19T20:32:59;4.77;;;2.50;;
7211;SDS011;3647;48.792;9.802;2023-11-19T20:35:26;6.03;;;2.50;;
7211;SDS011;3647;48.792;9.802;2023-11-19T20:37:53;4.87;;;1.90;;
7211;SDS011;3647;48.792;9.802;2023-11-19T20:40:20;2.53;;;2.03;;
7211;SDS011;3647;48.792;9.802;2023-11-19T20:42:47;2.60;;;2.40;;
7211;SDS011;3647;48.792;9.802;2023-11-19T20:45:16;7.17;;;2.13;;
7211;SDS011;3647;48.792;9.802;2023-11-19T20:47:44;2.90;;;2.00;;
7211;SDS011;3647;48.792;9.802;2023-11-19T20:50:14;2.97;;;2.40;;
7211;SDS011;3647;48.792;9.802;2023-11-19T20:52:41;4.13;;;2.47;;
7211;SDS011;3647;48.792;9.802;2023-11-19T20:55:08;3.60;;;2.03;;
7211;SDS011;3647;48.792;9.802;2023-11-19T20:57:36;2.60;;;2.23;;
7211;SDS011;3647;48.792;9.802;2023-11-19T21:00:03;3.93;;;2.63;;
7211;SDS011;3647;48.792;9.802;2023-11-19T21:02:33;4.27;;;2.20;;
7211;SDS011;3647;48.792;9.802;2023-11-19T21:05:00;6.77;;;2.30;;
7211;SDS011;3647;48.792;9.802;2023-11-19T21:07:27;4.27;;;2.63;;
7211;SDS011;3647;48.792;9.802;2023-11-19T21:09:53;3.67;;;2.07;;
7211;SDS011;3647;48.792;9.802;2023-11-19T21:12:21;3.47;;;2.33;;
7211;SDS011;3647;48.792;9.802;2023-11-19T21:14:48;3.50;;;2.37;;
7211;SDS011;3647;48.792;9.802;2023-11-19T21:17:14;3.83;;;2.00;;
7211;SDS011;3647;48.792;9.802;2023-11-19T21:19:43;3.40;;;2.57;;
7211;SDS011;3647;48.792;9.802;2023-11-19T21:22:10;4.57;;;2.40;;
7211;SDS011;3647;48.792;9.802;2023-11-19T21:24:38;9.50;;;2.13;;
7211;SDS011;3647;48.792;9.802;2023-11-19T21:27:06;2.77;;;2.30;;
7211;SDS011;3647;48.792;9.802;2023-11-19T21:29:33;6.07;;;2.20;;
7211;SDS011;3647;48.792;9.802;2023-11-19T21:32:00;4.30;;;2.30;;
7211;SDS011;3647;48.792;9.802;2023-11-19T21:34:26;6.03;;;2.90;;
7211;SDS011;3647;48.792;9.802;2023-11-19T21:36:55;6.00;;;3.00;;
7211;SDS011;3647;48.792;9.802;2023-11-19T21:39:22;4.27;;;2.33;;
7211;SDS011;3647;48.792;9.802;2023-11-19T21:41:49;5.33;;;2.50;;
7211;SDS011;3647;48.792;9.802;2023-11-19T21:44:19;2.93;;;2.20;;
7211;SDS011;3647;48.792;9.802;2023-11-19T21:46:46;5.43;;;2.03;;
7211;SDS011;3647;48.792;9.802;2023-11-19T21:49:13;3.73;;;2.03;;
7211;SDS011;3647;48.792;9.802;2023-11-19T21:51:40;4.50;;;1.87;;
7211;SDS011;3647;48.792;9.802;2023-11-19T21:54:08;6.73;;;2.63;;
7211;SDS011;3647;48.792;9.802;2023-11-19T21:56:35;7.43;;;2.33;;
7211;SDS011;3647;48.792;9.802;2023-11-19T21:59:02;8.67;;;2.40;;
7211;SDS011;3647;48.792;9.802;2023-11-19T22:01:29;5.63;;;2.50;;
7211;SDS011;3647;48.792;9.802;2023-11-19T22:03:57;5.60;;;2.20;;
7211;SDS011;3647;48.792;9.802;2023-11-19T22:06:24;3.80;;;2.13;;
7211;SDS011;3647;48.792;9.802;2023-11-19T22:08:52;5.90;;;2.40;;
7211;SDS011;3647;48.792;9.802;2023-11-19T22:11:19;5.53;;;2.63;;
7211;SDS011;3647;48.792;9.802;2023-11-19T22:13:49;5.73;;;2.37;;
7211;SDS011;3647;48.792;9.802;2023-11-19T22:16:15;4.17;;;2.30;;
7211;SDS011;3647;48.792;9.802;2023-11-19T22:18:42;6.13;;;2.40;;
7211;SDS011;3647;48.792;9.802;2023-11-19T22:21:10;6.40;;;2.13;;
7211;SDS011;3647;48.792;9.802;2023-11-19T22:23:37;3.53;;;2.03;;
7211;SDS011;3647;48.792;9.802;2023-11-19T22:26:04;6.17;;;2.20;;
7211;SDS011;3647;48.792;9.802;2023-11-19T22:28:32;7.73;;;2.73;;
